createdAt,value
2023-03-13T00:00:47.684Z,58.84
2023-03-13T00:01:37.741Z,58.25
2023-03-13T00:02:27.860Z,59.34
2023-03-13T00:03:17.827Z,58.43
2023-03-13T00:04:07.852Z,59.30
2023-03-13T00:04:57.991Z,59.65
2023-03-13T00:05:47.957Z,59.77
2023-03-13T00:06:38.038Z,59.99
2023-03-13T00:07:28.062Z,58.92
2023-03-13T00:08:18.147Z,59.33
2023-03-13T00:09:08.165Z,58.80
2023-03-13T00:09:58.221Z,58.74
2023-03-13T00:10:48.253Z,59.31
2023-03-13T00:11:38.348Z,59.15
2023-03-13T00:12:28.363Z,57.72
2023-03-13T00:13:18.446Z,58.90
2023-03-13T00:14:08.486Z,58.36
2023-03-13T00:14:58.578Z,58.45
2023-03-13T00:15:48.619Z,59.19
2023-03-13T00:16:38.819Z,58.92
2023-03-13T00:17:28.723Z,58.13
2023-03-13T00:18:18.793Z,58.90
2023-03-13T00:19:09.045Z,59.08
2023-03-13T00:19:59.106Z,59.25
2023-03-13T00:20:49.153Z,59.36
2023-03-13T00:21:39.175Z,58.86
2023-03-13T00:22:29.215Z,59.25
2023-03-13T00:23:19.289Z,58.93
2023-03-13T00:24:09.315Z,59.24
2023-03-13T00:24:59.406Z,59.54
2023-03-13T00:25:49.481Z,59.43
2023-03-13T00:26:39.574Z,59.44
2023-03-13T00:27:29.619Z,59.15
2023-03-13T00:28:19.932Z,58.92
2023-03-13T00:29:09.984Z,58.50
2023-03-13T00:30:00.031Z,59.05
2023-03-13T00:30:50.148Z,59.17
2023-03-13T00:31:40.263Z,59.22
2023-03-13T00:32:30.196Z,59.33
2023-03-13T00:33:20.225Z,58.40
2023-03-13T00:34:10.258Z,58.42
2023-03-13T00:35:00.433Z,58.22
2023-03-13T00:35:50.505Z,58.29
2023-03-13T00:36:40.506Z,58.97
2023-03-13T00:37:30.506Z,59.30
2023-03-13T00:38:20.593Z,59.28
2023-03-13T00:39:10.625Z,58.84
2023-03-13T00:40:00.724Z,58.33
2023-03-13T00:40:50.754Z,58.11
2023-03-13T00:41:41.469Z,59.11
2023-03-13T00:42:30.890Z,59.35
2023-03-13T00:43:20.974Z,58.98
2023-03-13T00:44:11.218Z,59.49
2023-03-13T00:45:01.317Z,57.96
2023-03-13T00:45:51.396Z,58.66
2023-03-13T00:46:41.384Z,59.03
2023-03-13T00:47:31.414Z,58.38
2023-03-13T00:48:21.485Z,58.08
2023-03-13T00:49:11.553Z,59.03
2023-03-13T00:50:01.663Z,59.38
2023-03-13T00:50:51.703Z,59.79
2023-03-13T00:51:41.787Z,58.85
2023-03-13T00:52:31.832Z,58.65
2023-03-13T00:53:22.078Z,59.42
2023-03-13T00:54:12.093Z,59.65
2023-03-13T00:55:02.222Z,59.82
2023-03-13T00:55:52.219Z,59.49
2023-03-13T00:56:42.264Z,59.75
2023-03-13T00:57:32.297Z,59.44
2023-03-13T00:58:22.366Z,59.91
2023-03-13T00:59:12.400Z,59.15
2023-03-13T01:00:02.457Z,59.16
2023-03-13T01:00:52.488Z,59.12
2023-03-13T01:01:42.565Z,59.64
2023-03-13T01:02:32.683Z,59.58
2023-03-13T01:03:22.842Z,59.69
2023-03-13T01:04:12.711Z,60.06
2023-03-13T01:05:02.793Z,60.06
2023-03-13T01:05:52.826Z,59.38
2023-03-13T01:06:43.295Z,59.96
2023-03-13T01:07:33.123Z,60.33
2023-03-13T01:08:23.229Z,60.23
2023-03-13T01:09:13.233Z,60.38
2023-03-13T01:10:03.336Z,60.42
2023-03-13T01:10:53.349Z,60.53
2023-03-13T01:11:43.430Z,58.94
2023-03-13T01:12:33.462Z,59.87
2023-03-13T01:13:23.544Z,60.16
2023-03-13T01:14:13.574Z,60.23
2023-03-13T01:15:03.682Z,59.73
2023-03-13T01:15:54.008Z,60.11
2023-03-13T01:16:43.994Z,60.32
2023-03-13T01:17:34.067Z,60.30
2023-03-13T01:18:24.405Z,60.10
2023-03-13T01:19:14.435Z,60.15
2023-03-13T01:20:04.501Z,60.09
2023-03-13T01:20:54.545Z,59.69
2023-03-13T01:21:44.617Z,59.98
2023-03-13T01:22:34.694Z,59.67
2023-03-13T01:23:24.783Z,60.21
2023-03-13T01:24:14.866Z,60.52
2023-03-13T01:25:04.931Z,60.10
2023-03-13T01:25:54.958Z,60.50
2023-03-13T01:26:45.050Z,60.11
2023-03-13T01:27:35.232Z,60.10
2023-03-13T01:28:25.319Z,60.48
2023-03-13T01:29:15.348Z,60.53
2023-03-13T01:30:05.439Z,58.97
2023-03-13T01:30:55.532Z,58.01
2023-03-13T01:31:45.520Z,59.80
2023-03-13T01:32:35.613Z,60.40
2023-03-13T01:33:25.595Z,60.41
2023-03-13T01:34:15.661Z,60.38
2023-03-13T01:35:05.754Z,60.30
2023-03-13T01:35:55.857Z,60.63
2023-03-13T01:36:45.840Z,60.82
2023-03-13T01:37:35.878Z,60.49
2023-03-13T01:38:25.935Z,60.49
2023-03-13T01:39:15.980Z,60.87
2023-03-13T01:40:06.063Z,60.59
2023-03-13T01:40:56.102Z,60.68
2023-03-13T01:41:46.176Z,60.25
2023-03-13T01:42:36.251Z,60.45
2023-03-13T01:43:27.567Z,60.32
2023-03-13T01:44:16.626Z,60.01
2023-03-13T01:45:06.722Z,60.56
2023-03-13T01:45:56.803Z,60.34
2023-03-13T01:46:46.894Z,59.99
2023-03-13T01:47:36.888Z,59.57
2023-03-13T01:48:26.956Z,60.41
2023-03-13T01:49:16.978Z,60.63
2023-03-13T01:50:07.118Z,60.77
2023-03-13T01:50:57.139Z,60.59
2023-03-13T01:51:47.215Z,60.32
2023-03-13T01:52:37.284Z,60.01
2023-03-13T01:53:27.361Z,60.14
2023-03-13T01:54:17.396Z,60.43
2023-03-13T01:55:07.508Z,60.25
2023-03-13T01:55:57.555Z,59.26
2023-03-13T01:56:47.570Z,59.37
2023-03-13T01:57:37.607Z,59.77
2023-03-13T01:58:27.684Z,60.22
2023-03-13T01:59:17.969Z,59.92
2023-03-13T02:00:08.058Z,59.29
2023-03-13T02:00:58.074Z,59.14
2023-03-13T02:01:48.150Z,59.64
2023-03-13T02:02:38.175Z,59.94
2023-03-13T02:03:28.237Z,58.78
2023-03-13T02:04:18.269Z,59.24
2023-03-13T02:05:08.368Z,59.81
2023-03-13T02:05:58.413Z,59.29
2023-03-13T02:06:48.495Z,59.16
2023-03-13T02:07:38.535Z,58.92
2023-03-13T02:08:28.593Z,58.73
2023-03-13T02:09:18.621Z,59.53
2023-03-13T02:10:08.694Z,59.60
2023-03-13T02:10:58.713Z,59.47
2023-03-13T02:11:48.822Z,59.85
2023-03-13T02:12:38.831Z,58.63
2023-03-13T02:13:28.879Z,59.40
2023-03-13T02:14:21.299Z,59.87
2023-03-13T02:15:08.979Z,59.60
2023-03-13T02:15:59.109Z,59.13
2023-03-13T02:16:49.082Z,59.86
2023-03-13T02:17:39.105Z,59.22
2023-03-13T02:18:29.419Z,59.83
2023-03-13T02:19:19.447Z,58.94
2023-03-13T02:20:09.550Z,59.49
2023-03-13T02:20:59.576Z,58.73
2023-03-13T02:21:49.613Z,59.37
2023-03-13T02:22:39.641Z,59.55
2023-03-13T02:23:29.732Z,59.58
2023-03-13T02:24:19.751Z,59.71
2023-03-13T02:25:09.858Z,60.21
2023-03-13T02:25:59.882Z,60.07
2023-03-13T02:26:49.957Z,59.82
2023-03-13T02:27:40.008Z,60.33
2023-03-13T02:28:30.056Z,60.54
2023-03-13T02:29:20.089Z,59.96
2023-03-13T02:30:10.196Z,60.15
2023-03-13T02:31:00.264Z,60.35
2023-03-13T02:31:50.367Z,60.53
2023-03-13T02:32:40.549Z,60.43
2023-03-13T02:33:30.376Z,60.35
2023-03-13T02:34:20.402Z,60.47
2023-03-13T02:35:10.499Z,60.76
2023-03-13T02:36:00.634Z,60.60
2023-03-13T02:36:50.585Z,60.64
2023-03-13T02:37:40.657Z,60.56
2023-03-13T02:38:30.731Z,60.68
2023-03-13T02:39:20.759Z,60.62
2023-03-13T02:40:10.854Z,60.70
2023-03-13T02:41:01.121Z,60.70
2023-03-13T02:41:51.207Z,60.54
2023-03-13T02:42:41.234Z,60.78
2023-03-13T02:43:31.589Z,60.74
2023-03-13T02:44:21.635Z,60.59
2023-03-13T02:45:11.724Z,60.34
2023-03-13T02:46:02.011Z,60.62
2023-03-13T02:46:52.142Z,60.66
2023-03-13T02:47:42.123Z,60.79
2023-03-13T02:48:32.207Z,60.68
2023-03-13T02:49:22.225Z,60.81
2023-03-13T02:50:12.329Z,60.28
2023-03-13T02:51:02.366Z,60.64
2023-03-13T02:51:52.434Z,60.86
2023-03-13T02:52:42.500Z,60.89
2023-03-13T02:53:32.584Z,59.38
2023-03-13T02:54:22.622Z,60.45
2023-03-13T02:55:12.949Z,60.54
2023-03-13T02:56:02.983Z,60.54
2023-03-13T02:56:53.010Z,60.77
2023-03-13T02:57:43.076Z,60.83
2023-03-13T02:58:35.527Z,60.70
2023-03-13T02:59:23.244Z,60.88
2023-03-13T03:00:13.317Z,60.75
2023-03-13T03:01:03.525Z,60.87
2023-03-13T03:01:54.506Z,60.53
2023-03-13T03:02:43.534Z,60.91
2023-03-13T03:03:33.636Z,60.80
2023-03-13T03:04:23.712Z,60.87
2023-03-13T03:05:13.715Z,60.87
2023-03-13T03:06:03.739Z,60.68
2023-03-13T03:06:53.840Z,60.76
2023-03-13T03:07:43.982Z,61.09
2023-03-13T03:08:34.068Z,60.57
2023-03-13T03:09:24.107Z,60.76
2023-03-13T03:10:14.189Z,60.65
2023-03-13T03:11:04.243Z,60.85
2023-03-13T03:11:54.260Z,60.82
2023-03-13T03:12:44.326Z,60.86
2023-03-13T03:13:34.402Z,61.00
2023-03-13T03:14:24.438Z,61.02
2023-03-13T03:15:14.556Z,60.47
2023-03-13T03:16:04.583Z,60.75
2023-03-13T03:16:54.903Z,61.11
2023-03-13T03:17:44.970Z,61.03
2023-03-13T03:18:35.009Z,60.51
2023-03-13T03:19:25.049Z,60.66
2023-03-13T03:20:15.139Z,60.64
2023-03-13T03:21:05.162Z,60.91
2023-03-13T03:21:55.248Z,61.17
2023-03-13T03:22:45.278Z,61.42
2023-03-13T03:23:35.353Z,60.68
2023-03-13T03:24:25.412Z,61.21
2023-03-13T03:25:15.469Z,61.22
2023-03-13T03:26:05.727Z,61.33
2023-03-13T03:26:55.799Z,61.41
2023-03-13T03:27:45.798Z,61.06
2023-03-13T03:28:35.905Z,61.57
2023-03-13T03:29:25.913Z,61.41
2023-03-13T03:30:16.005Z,61.09
2023-03-13T03:31:06.079Z,61.25
2023-03-13T03:31:56.239Z,61.40
2023-03-13T03:32:46.273Z,61.17
2023-03-13T03:33:36.242Z,60.92
2023-03-13T03:34:26.255Z,60.95
2023-03-13T03:35:16.614Z,61.33
2023-03-13T03:36:06.689Z,61.63
2023-03-13T03:36:56.674Z,61.76
2023-03-13T03:37:46.711Z,61.68
2023-03-13T03:38:36.782Z,61.83
2023-03-13T03:39:26.839Z,61.90
2023-03-13T03:40:16.870Z,61.73
2023-03-13T03:41:06.897Z,61.49
2023-03-13T03:41:56.942Z,61.77
2023-03-13T03:42:46.975Z,61.71
2023-03-13T03:43:37.051Z,61.70
2023-03-13T03:44:27.089Z,61.71
2023-03-13T03:45:17.188Z,61.35
2023-03-13T03:46:07.338Z,61.59
2023-03-13T03:46:57.377Z,61.51
2023-03-13T03:47:47.313Z,61.62
2023-03-13T03:48:37.392Z,61.61
2023-03-13T03:49:27.432Z,61.62
2023-03-13T03:50:17.541Z,61.79
2023-03-13T03:51:07.581Z,61.71
2023-03-13T03:51:57.661Z,61.46
2023-03-13T03:52:47.695Z,61.42
2023-03-13T03:53:37.776Z,61.60
2023-03-13T03:54:27.810Z,61.09
2023-03-13T03:55:17.876Z,61.52
2023-03-13T03:56:07.915Z,61.01
2023-03-13T03:56:58.010Z,59.95
2023-03-13T03:57:48.281Z,61.11
2023-03-13T03:58:38.366Z,61.33
2023-03-13T03:59:28.404Z,61.32
2023-03-13T04:00:18.472Z,61.54
2023-03-13T04:01:08.507Z,61.35
2023-03-13T04:01:58.634Z,61.65
2023-03-13T04:02:48.622Z,61.16
2023-03-13T04:03:38.710Z,61.74
2023-03-13T04:04:28.768Z,61.40
2023-03-13T04:05:18.866Z,61.66
2023-03-13T04:06:08.900Z,61.52
2023-03-13T04:06:59.242Z,61.25
2023-03-13T04:07:49.276Z,61.73
2023-03-13T04:08:39.318Z,61.09
2023-03-13T04:09:31.937Z,60.89
2023-03-13T04:10:19.421Z,61.50
2023-03-13T04:11:09.445Z,61.64
2023-03-13T04:11:59.533Z,61.58
2023-03-13T04:12:49.590Z,61.47
2023-03-13T04:13:39.673Z,61.67
2023-03-13T04:14:29.702Z,61.43
2023-03-13T04:15:19.759Z,61.84
2023-03-13T04:16:09.858Z,61.65
2023-03-13T04:16:59.921Z,61.78
2023-03-13T04:17:49.946Z,61.80
2023-03-13T04:18:39.924Z,61.71
2023-03-13T04:19:29.961Z,62.04
2023-03-13T04:20:20.051Z,61.83
2023-03-13T04:21:10.088Z,61.92
2023-03-13T04:22:00.142Z,61.66
2023-03-13T04:22:50.204Z,62.11
2023-03-13T04:23:40.284Z,61.66
2023-03-13T04:24:30.319Z,61.96
2023-03-13T04:25:20.371Z,62.09
2023-03-13T04:26:10.417Z,62.13
2023-03-13T04:27:00.478Z,61.98
2023-03-13T04:27:50.510Z,61.89
2023-03-13T04:28:40.554Z,61.76
2023-03-13T04:29:30.614Z,62.07
2023-03-13T04:30:20.671Z,62.15
2023-03-13T04:31:10.789Z,62.18
2023-03-13T04:32:00.752Z,62.23
2023-03-13T04:32:50.836Z,61.91
2023-03-13T04:33:40.903Z,62.36
2023-03-13T04:34:30.920Z,62.49
2023-03-13T04:35:21.086Z,62.17
2023-03-13T04:36:11.159Z,61.31
2023-03-13T04:37:01.084Z,61.90
2023-03-13T04:37:51.122Z,61.97
2023-03-13T04:38:41.468Z,61.98
2023-03-13T04:39:33.054Z,62.15
2023-03-13T04:40:21.823Z,61.88
2023-03-13T04:41:11.839Z,62.56
2023-03-13T04:42:01.925Z,62.09
2023-03-13T04:42:51.950Z,62.20
2023-03-13T04:43:42.033Z,62.14
2023-03-13T04:44:32.069Z,62.23
2023-03-13T04:45:22.194Z,61.83
2023-03-13T04:46:13.083Z,62.06
2023-03-13T04:47:02.268Z,62.50
2023-03-13T04:47:52.330Z,62.46
2023-03-13T04:48:42.411Z,62.18
2023-03-13T04:49:32.671Z,61.99
2023-03-13T04:50:22.761Z,61.81
2023-03-13T04:51:12.807Z,62.12
2023-03-13T04:52:03.132Z,62.00
2023-03-13T04:52:53.163Z,61.58
2023-03-13T04:53:43.241Z,62.38
2023-03-13T04:54:33.274Z,62.21
2023-03-13T04:55:23.326Z,62.41
2023-03-13T04:56:13.354Z,62.38
2023-03-13T04:57:03.431Z,61.27
2023-03-13T04:57:53.462Z,62.24
2023-03-13T04:58:45.007Z,61.21
2023-03-13T04:59:33.581Z,62.05
2023-03-13T05:00:23.685Z,61.52
2023-03-13T05:01:13.816Z,61.82
2023-03-13T05:02:03.776Z,61.81
2023-03-13T05:02:53.813Z,62.20
2023-03-13T05:03:43.886Z,62.15
2023-03-13T05:04:33.946Z,62.26
2023-03-13T05:05:24.408Z,62.55
2023-03-13T05:06:14.281Z,62.63
2023-03-13T05:07:04.365Z,62.51
2023-03-13T05:07:54.383Z,62.54
2023-03-13T05:08:44.465Z,62.49
2023-03-13T05:09:34.488Z,62.48
2023-03-13T05:10:24.558Z,62.50
2023-03-13T05:11:14.587Z,62.44
2023-03-13T05:12:04.631Z,62.08
2023-03-13T05:12:54.658Z,62.38
2023-03-13T05:13:44.739Z,62.61
2023-03-13T05:14:34.772Z,62.34
2023-03-13T05:15:24.819Z,62.13
2023-03-13T05:16:14.904Z,62.27
2023-03-13T05:17:04.910Z,62.17
2023-03-13T05:17:55.025Z,61.34
2023-03-13T05:18:45.044Z,61.69
2023-03-13T05:19:35.084Z,62.40
2023-03-13T05:20:25.140Z,62.66
2023-03-13T05:21:15.204Z,62.70
2023-03-13T05:22:05.241Z,62.79
2023-03-13T05:22:55.288Z,62.61
2023-03-13T05:23:45.316Z,62.62
2023-03-13T05:24:35.350Z,62.66
2023-03-13T05:25:25.442Z,62.36
2023-03-13T05:26:15.477Z,62.34
2023-03-13T05:27:05.509Z,61.59
2023-03-13T05:27:55.548Z,61.92
2023-03-13T05:28:45.591Z,62.17
2023-03-13T05:29:35.645Z,62.48
2023-03-13T05:30:25.684Z,62.50
2023-03-13T05:31:15.840Z,62.42
2023-03-13T05:32:05.812Z,62.41
2023-03-13T05:32:55.950Z,61.29
2023-03-13T05:33:45.893Z,62.11
2023-03-13T05:34:35.934Z,62.53
2023-03-13T05:35:25.994Z,62.23
2023-03-13T05:36:16.024Z,62.65
2023-03-13T05:37:06.093Z,62.32
2023-03-13T05:37:56.092Z,62.15
2023-03-13T05:38:46.180Z,62.56
2023-03-13T05:39:36.208Z,62.56
2023-03-13T05:40:26.307Z,61.70
2023-03-13T05:41:16.344Z,62.12
2023-03-13T05:42:06.393Z,62.32
2023-03-13T05:42:56.439Z,62.71
2023-03-13T05:43:46.482Z,62.60
2023-03-13T05:44:36.517Z,62.84
2023-03-13T05:45:26.620Z,62.42
2023-03-13T05:46:16.743Z,62.04
2023-03-13T05:47:06.729Z,62.61
2023-03-13T05:47:56.791Z,62.60
2023-03-13T05:48:46.881Z,62.85
2023-03-13T05:49:36.944Z,62.93
2023-03-13T05:50:27.052Z,62.92
2023-03-13T05:51:17.080Z,62.77
2023-03-13T05:52:07.155Z,63.10
2023-03-13T05:52:57.210Z,62.12
2023-03-13T05:53:47.243Z,62.74
2023-03-13T05:54:37.522Z,62.68
2023-03-13T05:55:27.585Z,62.95
2023-03-13T05:56:17.632Z,62.79
2023-03-13T05:57:07.672Z,61.99
2023-03-13T05:57:57.696Z,62.63
2023-03-13T05:58:47.775Z,62.72
2023-03-13T05:59:37.804Z,62.73
2023-03-13T06:00:27.866Z,63.11
2023-03-13T06:01:17.887Z,62.96
2023-03-13T06:02:07.966Z,62.95
2023-03-13T06:02:58.002Z,62.79
2023-03-13T06:03:48.141Z,63.01
2023-03-13T06:04:38.268Z,63.31
2023-03-13T06:05:28.172Z,62.89
2023-03-13T06:06:18.200Z,63.12
2023-03-13T06:07:08.242Z,62.82
2023-03-13T06:07:58.357Z,62.49
2023-03-13T06:08:48.452Z,62.38
2023-03-13T06:09:38.463Z,62.68
2023-03-13T06:10:28.820Z,62.80
2023-03-13T06:11:18.863Z,62.86
2023-03-13T06:12:08.900Z,62.81
2023-03-13T06:13:03.157Z,63.17
2023-03-13T06:13:49.987Z,62.80
2023-03-13T06:14:39.080Z,63.10
2023-03-13T06:15:29.116Z,62.96
2023-03-13T06:16:19.248Z,63.11
2023-03-13T06:17:09.292Z,62.91
2023-03-13T06:17:59.302Z,62.96
2023-03-13T06:18:49.339Z,62.78
2023-03-13T06:19:39.503Z,63.34
2023-03-13T06:20:29.546Z,63.53
2023-03-13T06:21:19.585Z,63.48
2023-03-13T06:22:09.607Z,62.99
2023-03-13T06:22:59.684Z,63.06
2023-03-13T06:23:49.717Z,63.28
2023-03-13T06:24:39.900Z,63.46
2023-03-13T06:25:29.871Z,63.18
2023-03-13T06:26:19.917Z,63.29
2023-03-13T06:27:09.939Z,63.11
2023-03-13T06:28:00.032Z,63.02
2023-03-13T06:28:50.332Z,63.17
2023-03-13T06:29:40.361Z,63.03
2023-03-13T06:30:30.449Z,63.10
2023-03-13T06:31:20.558Z,63.36
2023-03-13T06:32:10.576Z,63.45
2023-03-13T06:33:00.785Z,63.15
2023-03-13T06:33:50.761Z,63.31
2023-03-13T06:34:40.702Z,63.17
2023-03-13T06:35:30.970Z,63.12
2023-03-13T06:36:20.952Z,62.70
2023-03-13T06:37:10.935Z,62.69
2023-03-13T06:38:01.000Z,62.91
2023-03-13T06:38:51.024Z,63.00
2023-03-13T06:39:41.069Z,63.72
2023-03-13T06:40:31.151Z,63.49
2023-03-13T06:41:21.164Z,63.40
2023-03-13T06:42:11.228Z,62.82
2023-03-13T06:43:01.310Z,63.02
2023-03-13T06:43:51.340Z,63.63
2023-03-13T06:44:41.696Z,63.50
2023-03-13T06:45:31.734Z,63.76
2023-03-13T06:46:21.817Z,63.64
2023-03-13T06:47:14.343Z,63.76
2023-03-13T06:48:01.874Z,63.59
2023-03-13T06:48:52.082Z,64.06
2023-03-13T06:49:42.159Z,63.98
2023-03-13T06:50:32.208Z,63.78
2023-03-13T06:51:22.237Z,63.72
2023-03-13T06:52:12.253Z,63.83
2023-03-13T06:53:02.326Z,64.20
2023-03-13T06:53:52.457Z,64.03
2023-03-13T06:54:42.405Z,63.74
2023-03-13T06:55:32.515Z,63.69
2023-03-13T06:56:22.550Z,63.81
2023-03-13T06:57:12.557Z,64.06
2023-03-13T06:58:02.651Z,63.77
2023-03-13T06:58:52.703Z,62.95
2023-03-13T06:59:42.783Z,63.52
2023-03-13T07:00:32.942Z,63.68
2023-03-13T07:01:22.976Z,63.78
2023-03-13T07:02:12.938Z,63.77
2023-03-13T07:03:03.022Z,63.80
2023-03-13T07:03:53.192Z,64.18
2023-03-13T07:04:45.172Z,64.03
2023-03-13T07:05:33.140Z,64.42
2023-03-13T07:06:23.241Z,63.57
2023-03-13T07:07:25.695Z,64.00
2023-03-13T07:08:04.337Z,64.41
2023-03-13T07:08:53.370Z,64.16
2023-03-13T07:09:43.442Z,64.41
2023-03-13T07:10:33.520Z,63.97
2023-03-13T07:11:23.559Z,64.25
2023-03-13T07:12:13.642Z,64.15
2023-03-13T07:13:03.696Z,64.32
2023-03-13T07:13:56.526Z,64.74
2023-03-13T07:14:44.938Z,64.56
2023-03-13T07:15:33.988Z,64.00
2023-03-13T07:16:24.124Z,64.15
2023-03-13T07:17:14.073Z,64.32
2023-03-13T07:18:04.124Z,64.18
2023-03-13T07:18:54.190Z,64.38
2023-03-13T07:19:44.274Z,64.10
2023-03-13T07:20:34.532Z,64.07
2023-03-13T07:21:24.516Z,64.27
2023-03-13T07:22:14.562Z,63.49
2023-03-13T07:23:04.610Z,64.18
2023-03-13T07:23:54.638Z,64.73
2023-03-13T07:24:44.778Z,64.14
2023-03-13T07:25:34.773Z,64.12
2023-03-13T07:26:24.844Z,64.47
2023-03-13T07:27:14.942Z,64.39
2023-03-13T07:28:04.982Z,64.22
2023-03-13T07:28:55.000Z,63.06
2023-03-13T07:29:45.044Z,64.55
2023-03-13T07:30:35.098Z,64.59
2023-03-13T07:31:25.212Z,64.20
2023-03-13T07:32:15.190Z,64.84
2023-03-13T07:33:05.336Z,64.39
2023-03-13T07:33:55.377Z,64.59
2023-03-13T07:34:45.424Z,64.37
2023-03-13T07:35:35.476Z,64.52
2023-03-13T07:36:25.550Z,65.15
2023-03-13T07:37:15.568Z,64.61
2023-03-13T07:38:05.600Z,64.56
2023-03-13T07:38:55.640Z,64.20
2023-03-13T07:39:45.679Z,64.42
2023-03-13T07:40:35.800Z,63.23
2023-03-13T07:41:25.793Z,64.40
2023-03-13T07:42:15.844Z,64.59
2023-03-13T07:43:05.874Z,64.80
2023-03-13T07:43:55.948Z,63.92
2023-03-13T07:44:45.984Z,65.16
2023-03-13T07:45:36.121Z,65.12
2023-03-13T07:46:26.140Z,64.47
2023-03-13T07:47:16.167Z,64.86
2023-03-13T07:48:06.549Z,63.91
2023-03-13T07:48:56.255Z,64.96
2023-03-13T07:49:46.591Z,64.25
2023-03-13T07:50:36.763Z,64.71
2023-03-13T07:51:42.216Z,64.85
2023-03-13T07:52:17.774Z,64.42
2023-03-13T07:53:07.204Z,64.63
2023-03-13T07:53:56.853Z,65.01
2023-03-13T07:54:46.930Z,64.62
2023-03-13T07:55:37.013Z,64.07
2023-03-13T07:56:27.055Z,64.01
2023-03-13T07:57:17.089Z,64.68
2023-03-13T07:58:07.160Z,63.64
2023-03-13T07:58:57.197Z,65.29
2023-03-13T07:59:47.295Z,64.84
2023-03-13T08:00:37.324Z,65.21
2023-03-13T08:01:30.261Z,65.40
2023-03-13T08:02:17.475Z,65.11
2023-03-13T08:03:07.698Z,63.98
2023-03-13T08:03:57.544Z,65.14
2023-03-13T08:04:47.616Z,65.05
2023-03-13T08:05:37.738Z,64.88
2023-03-13T08:06:27.775Z,64.61
2023-03-13T08:07:17.817Z,64.83
2023-03-13T08:08:07.858Z,64.59
2023-03-13T08:08:57.896Z,64.68
2023-03-13T08:09:47.984Z,64.47
2023-03-13T08:10:38.026Z,64.55
2023-03-13T08:11:28.077Z,64.95
2023-03-13T08:12:18.109Z,64.79
2023-03-13T08:13:08.179Z,64.68
2023-03-13T08:13:58.196Z,64.73
2023-03-13T08:14:48.240Z,64.47
2023-03-13T08:15:38.327Z,64.67
2023-03-13T08:16:28.447Z,65.52
2023-03-13T08:17:18.443Z,65.14
2023-03-13T08:18:08.525Z,63.85
2023-03-13T08:18:58.572Z,63.13
2023-03-13T08:19:48.604Z,64.15
2023-03-13T08:20:38.661Z,63.85
2023-03-13T08:21:28.708Z,65.21
2023-03-13T08:22:18.735Z,64.63
2023-03-13T08:23:08.822Z,64.96
2023-03-13T08:23:58.849Z,63.71
2023-03-13T08:24:48.953Z,63.94
2023-03-13T08:25:39.001Z,64.79
2023-03-13T08:26:29.059Z,64.51
2023-03-13T08:27:19.091Z,64.73
2023-03-13T08:28:09.157Z,64.04
2023-03-13T08:28:59.208Z,65.38
2023-03-13T08:29:49.289Z,64.11
2023-03-13T08:30:39.370Z,65.02
2023-03-13T08:31:29.425Z,64.95
2023-03-13T08:32:19.518Z,64.71
2023-03-13T08:33:09.488Z,64.65
2023-03-13T08:33:59.531Z,64.35
2023-03-13T08:34:49.577Z,64.50
2023-03-13T08:35:39.696Z,63.84
2023-03-13T08:36:29.756Z,64.99
2023-03-13T08:37:19.793Z,65.21
2023-03-13T08:38:09.835Z,61.73
2023-03-13T08:38:59.895Z,63.09
2023-03-13T08:39:49.911Z,63.03
2023-03-13T08:40:39.957Z,64.79
2023-03-13T08:41:30.045Z,64.00
2023-03-13T08:42:20.070Z,64.71
2023-03-13T08:43:10.135Z,63.52
2023-03-13T08:44:00.168Z,64.44
2023-03-13T08:44:50.215Z,64.48
2023-03-13T08:45:40.262Z,62.43
2023-03-13T08:46:30.390Z,62.48
2023-03-13T08:47:20.355Z,63.05
2023-03-13T08:48:10.370Z,62.24
2023-03-13T08:49:00.437Z,63.48
2023-03-13T08:49:50.483Z,63.53
2023-03-13T08:50:40.546Z,63.24
2023-03-13T08:51:30.575Z,62.08
2023-03-13T08:52:20.607Z,64.75
2023-03-13T08:53:10.692Z,63.34
2023-03-13T08:54:00.758Z,62.83
2023-03-13T08:54:50.795Z,64.26
2023-03-13T08:55:40.862Z,64.81
2023-03-13T08:56:30.938Z,64.15
2023-03-13T08:57:20.937Z,63.17
2023-03-13T08:58:11.014Z,63.11
2023-03-13T08:59:01.113Z,62.99
2023-03-13T08:59:51.113Z,62.98
2023-03-13T09:00:41.154Z,62.75
2023-03-13T09:01:31.194Z,64.08
2023-03-13T09:02:21.281Z,64.29
2023-03-13T09:03:11.346Z,63.30
2023-03-13T09:04:04.258Z,62.90
2023-03-13T09:04:51.383Z,63.57
2023-03-13T09:05:55.216Z,64.80
2023-03-13T09:06:32.487Z,62.15
2023-03-13T09:07:21.541Z,64.02
2023-03-13T09:08:11.569Z,63.53
2023-03-13T09:09:01.638Z,62.92
2023-03-13T09:09:51.649Z,63.64
2023-03-13T09:10:41.741Z,62.40
2023-03-13T09:11:31.767Z,63.11
2023-03-13T09:12:30.735Z,62.92
2023-03-13T09:13:13.083Z,64.07
2023-03-13T09:14:02.125Z,62.97
2023-03-13T09:14:52.171Z,63.98
2023-03-13T09:15:42.254Z,62.99
2023-03-13T09:16:32.285Z,63.96
2023-03-13T09:17:22.314Z,63.27
2023-03-13T09:18:12.411Z,61.40
2023-03-13T09:19:02.647Z,61.95
2023-03-13T09:20:00.203Z,62.96
2023-03-13T09:20:43.765Z,62.96
2023-03-13T09:21:32.769Z,63.72
2023-03-13T09:22:22.839Z,63.83
2023-03-13T09:23:12.919Z,63.88
2023-03-13T09:24:02.951Z,62.78
2023-03-13T09:24:52.996Z,62.48
2023-03-13T09:25:43.031Z,62.26
2023-03-13T09:26:33.258Z,62.57
2023-03-13T09:27:23.285Z,61.30
2023-03-13T09:28:13.371Z,61.95
2023-03-13T09:29:03.406Z,64.07
2023-03-13T09:29:53.451Z,63.23
2023-03-13T09:30:43.571Z,63.91
2023-03-13T09:31:33.667Z,63.35
2023-03-13T09:32:23.619Z,62.90
2023-03-13T09:33:13.668Z,63.44
2023-03-13T09:34:03.704Z,63.49
2023-03-13T09:34:53.781Z,63.76
2023-03-13T09:35:43.854Z,62.75
2023-03-13T09:36:33.878Z,61.60
2023-03-13T09:37:23.904Z,62.10
2023-03-13T09:38:13.946Z,63.65
2023-03-13T09:39:03.989Z,61.89
2023-03-13T09:39:54.110Z,61.02
2023-03-13T09:40:48.669Z,61.34
2023-03-13T09:41:35.226Z,62.84
2023-03-13T09:42:24.250Z,61.85
2023-03-13T09:43:14.278Z,62.39
2023-03-13T09:44:04.367Z,61.79
2023-03-13T09:44:54.406Z,62.55
2023-03-13T09:45:44.472Z,63.12
2023-03-13T09:46:34.704Z,62.88
2023-03-13T09:47:24.751Z,62.95
2023-03-13T09:48:14.786Z,62.13
2023-03-13T09:49:04.872Z,63.10
2023-03-13T09:49:54.891Z,63.83
2023-03-13T09:50:44.984Z,62.62
2023-03-13T09:51:35.001Z,62.44
2023-03-13T09:52:25.047Z,62.40
2023-03-13T09:53:15.064Z,61.98
2023-03-13T09:54:05.140Z,64.35
2023-03-13T09:54:55.178Z,64.11
2023-03-13T09:55:45.219Z,63.15
2023-03-13T09:56:35.275Z,62.86
2023-03-13T09:57:25.294Z,63.04
2023-03-13T09:58:15.333Z,63.59
2023-03-13T09:59:05.381Z,63.45
2023-03-13T09:59:55.417Z,63.25
2023-03-13T10:00:45.496Z,63.50
2023-03-13T10:01:35.614Z,62.44
2023-03-13T10:02:25.601Z,61.75
2023-03-13T10:03:15.622Z,64.13
2023-03-13T10:04:05.730Z,63.72
2023-03-13T10:04:55.737Z,63.17
2023-03-13T10:05:45.809Z,62.03
2023-03-13T10:06:35.884Z,62.84
2023-03-13T10:07:25.916Z,62.32
2023-03-13T10:08:15.957Z,62.52
2023-03-13T10:09:05.995Z,62.64
2023-03-13T10:09:56.338Z,63.34
2023-03-13T10:10:46.402Z,62.57
2023-03-13T10:11:36.457Z,63.63
2023-03-13T10:12:26.502Z,62.51
2023-03-13T10:13:16.525Z,61.68
2023-03-13T10:14:06.583Z,61.44
2023-03-13T10:14:56.608Z,62.36
2023-03-13T10:15:46.708Z,63.73
2023-03-13T10:16:36.811Z,63.76
2023-03-13T10:17:26.803Z,63.42
2023-03-13T10:18:16.843Z,62.34
2023-03-13T10:19:06.881Z,62.10
2023-03-13T10:19:56.941Z,61.39
2023-03-13T10:20:46.979Z,62.34
2023-03-13T10:21:37.037Z,61.46
2023-03-13T10:22:27.101Z,63.00
2023-03-13T10:23:17.153Z,63.12
2023-03-13T10:24:07.209Z,63.15
2023-03-13T10:24:57.229Z,62.25
2023-03-13T10:25:47.310Z,63.05
2023-03-13T10:26:37.375Z,64.69
2023-03-13T10:27:27.405Z,62.03
2023-03-13T10:28:17.441Z,61.41
2023-03-13T10:29:07.492Z,62.42
2023-03-13T10:29:57.568Z,62.73
2023-03-13T10:30:47.658Z,63.03
2023-03-13T10:31:37.751Z,63.30
2023-03-13T10:32:27.889Z,64.34
2023-03-13T10:33:17.771Z,62.53
2023-03-13T10:34:07.824Z,61.76
2023-03-13T10:34:57.839Z,63.42
2023-03-13T10:35:47.896Z,62.54
2023-03-13T10:36:38.107Z,62.54
2023-03-13T10:37:28.153Z,62.18
2023-03-13T10:38:18.205Z,62.23
2023-03-13T10:39:08.255Z,62.44
2023-03-13T10:39:58.286Z,62.85
2023-03-13T10:40:48.333Z,61.36
2023-03-13T10:41:38.386Z,61.91
2023-03-13T10:42:28.417Z,62.26
2023-03-13T10:43:19.744Z,62.69
2023-03-13T10:44:08.582Z,61.69
2023-03-13T10:44:58.607Z,63.12